Time;durP1;ratioP1;P1;durP2;ratioP2;P2;SDS_P1;SDS_P2;PMS_P1;PMS_P2;Temp;Humidity;BMP_temperature;BMP_pressure;BME280_temperature;BME280_humidity;BME280_pressure;Samples;Min_cycle;Max_cycle;Signal;HPM_P1;HPM_P2
2022/11/20 00:00:42;;;;;;;;;;;;;;;;;;10543006;28;19924;-66
2022/11/20 00:05:44;;;;;;;;;;;;;;;;;;10542860;28;19924;-66
2022/11/20 00:10:46;;;;;;;;;;;;;;;;;;10542624;28;19985;-66
2022/11/20 00:15:48;;;;;;;;;;;;;;;;;;10541728;28;20303;-66
2022/11/20 00:20:50;;;;;;;;;;;;;;;;;;10542044;28;19924;-66
2022/11/20 00:25:52;;;;;;;;;;;;;;;;;;10542069;28;19928;-66
2022/11/20 00:30:54;;;;;;;;;;;;;;;;;;10541941;28;19928;-66
2022/11/20 00:35:57;;;;;;;;;;;;;;;;;;10541665;28;19955;-66
2022/11/20 00:40:59;;;;;;;;;;;;;;;;;;10541465;28;19924;-66
2022/11/20 00:46:01;;;;;;;;;;;;;;;;;;10540766;28;20394;-66
2022/11/20 00:51:03;;;;;;;;;;;;;;;;;;10541253;28;19958;-66
2022/11/20 00:56:05;;;;;;;;;;;;;;;;;;10540999;28;20417;-66
2022/11/20 01:01:07;;;;;;;;;;;;;;;;;;10540316;28;20428;-66
2022/11/20 01:06:09;;;;;;;;;;;;;;;;;;10540881;28;19978;-66
2022/11/20 01:11:11;;;;;;;;;;;;;;;;;;10540054;28;19924;-66
2022/11/20 01:16:13;;;;;;;;;;;;;;;;;;10540481;28;19928;-66
2022/11/20 01:21:15;;;;;;;;;;;;;;;;;;10522386;28;19974;-66
2022/11/20 01:26:17;;;;;;;;;;;;;;;;;;10539782;28;20337;-66
2022/11/20 01:31:19;;;;;;;;;;;;;;;;;;10540267;28;19924;-66
2022/11/20 01:36:21;;;;;;;;;;;;;;;;;;10540119;28;19924;-67
2022/11/20 01:46:44;;;;;;;;;;;;;;;;;;10540023;28;19924;-66
2022/11/20 01:51:46;;;;;;;;;;;;;;;;;;10539259;28;19931;-66
2022/11/20 01:56:48;;;;;;;;;;;;;;;;;;10576935;28;19973;-66
2022/11/20 02:01:50;;;;;;;;;;;;;;;;;;10590482;28;19924;-66
2022/11/20 02:06:52;;;;;;;;;;;;;;;;;;10590317;28;19923;-66
2022/11/20 02:11:54;;;;;;;;;;;;;;;;;;10586844;28;19928;-67
2022/11/20 02:16:56;;;;;;;;;;;;;;;;;;10587512;28;19923;-66
2022/11/20 02:21:58;;;;;;;;;;;;;;;;;;10570161;28;20303;-66
2022/11/20 02:27:01;;;;;;;;;;;;;;;;;;10588365;28;19954;-66
2022/11/20 02:32:03;;;;;;;;;;;;;;;;;;10588241;28;19977;-66
2022/11/20 02:37:05;;;;;;;;;;;;;;;;;;10587940;28;19924;-66
2022/11/20 02:42:07;;;;;;;;;;;;;;;;;;10587790;28;20079;-66
2022/11/20 02:47:09;;;;;;;;;;;;;;;;;;10588191;28;19984;-66
2022/11/20 02:52:11;;;;;;;;;;;;;;;;;;10588031;28;19931;-66
2022/11/20 02:57:13;;;;;;;;;;;;;;;;;;10587767;28;19928;-66
2022/11/20 03:02:15;;;;;;;;;;;;;;;;;;10587609;28;19928;-66
2022/11/20 03:07:17;;;;;;;;;;;;;;;;;;10585964;28;20378;-66
2022/11/20 03:12:19;;;;;;;;;;;;;;;;;;10586551;28;19923;-66
2022/11/20 03:17:21;;;;;;;;;;;;;;;;;;10586362;28;20416;-66
2022/11/20 03:22:23;;;;;;;;;;;;;;;;;;10586743;28;20334;-67
2022/11/20 03:27:25;;;;;;;;;;;;;;;;;;10586565;28;19924;-66
2022/11/20 03:32:27;;;;;;;;;;;;;;;;;;10575592;22;20053;-65
2022/11/20 03:37:29;;;;;;;;;;;;;;;;;;10501477;28;20279;-65
2022/11/20 03:42:47;;;;;;;;;;;;;;;;;;10501949;28;19924;-65
2022/11/20 03:47:49;;;;;;;;;;;;;;;;;;10501597;28;20378;-65
2022/11/20 03:52:51;;;;;;;;;;;;;;;;;;10501475;28;19925;-65
2022/11/20 03:57:53;;;;;;;;;;;;;;;;;;10501165;28;19931;-65
2022/11/20 04:02:55;;;;;;;;;;;;;;;;;;10501055;28;19932;-65
2022/11/20 04:07:57;;;;;;;;;;;;;;;;;;10500763;28;19924;-66
2022/11/20 04:12:59;;;;;;;;;;;;;;;;;;10500596;28;19929;-66
2022/11/20 04:18:01;;;;;;;;;;;;;;;;;;10499666;28;20265;-66
2022/11/20 04:23:03;;;;;;;;;;;;;;;;;;10500275;28;19928;-65
2022/11/20 04:28:05;;;;;;;;;;;;;;;;;;10499380;28;20333;-65
2022/11/20 04:33:07;;;;;;;;;;;;;;;;;;10499637;28;19970;-66
2022/11/20 04:38:09;;;;;;;;;;;;;;;;;;10499107;28;19986;-66
2022/11/20 04:43:11;;;;;;;;;;;;;;;;;;10498992;28;19932;-66
2022/11/20 04:48:13;;;;;;;;;;;;;;;;;;10498774;28;20433;-66
2022/11/20 04:53:15;;;;;;;;;;;;;;;;;;10499353;28;19928;-66
2022/11/20 04:58:17;;;;;;;;;;;;;;;;;;10498630;28;20268;-65
2022/11/20 05:03:19;;;;;;;;;;;;;;;;;;10499079;28;19932;-65
2022/11/20 05:08:21;;;;;;;;;;;;;;;;;;10498876;28;19954;-66
2022/11/20 05:13:24;;;;;;;;;;;;;;;;;;10498852;28;19931;-66
2022/11/20 05:18:26;;;;;;;;;;;;;;;;;;10498758;28;20421;-66
2022/11/20 05:23:28;;;;;;;;;;;;;;;;;;10498009;28;19928;-66
2022/11/20 05:28:30;;;;;;;;;;;;;;;;;;10499964;28;19928;-66
2022/11/20 05:33:32;;;;;;;;;;;;;;;;;;10506886;28;19947;-66
2022/11/20 05:38:34;;;;;;;;;;;;;;;;;;10506238;28;19924;-66
2022/11/20 05:43:36;;;;;;;;;;;;;;;;;;10506035;28;20283;-66
2022/11/20 05:48:38;;;;;;;;;;;;;;;;;;10505781;28;20327;-66
2022/11/20 05:53:40;;;;;;;;;;;;;;;;;;10506244;28;19981;-66
2022/11/20 05:58:48;;;;;;;;;;;;;;;;;;10506040;28;19924;-66
2022/11/20 06:03:50;;;;;;;;;;;;;;;;;;10505764;28;19932;-66
2022/11/20 06:08:53;;;;;;;;;;;;;;;;;;10504885;28;19925;-66
2022/11/20 06:13:55;;;;;;;;;;;;;;;;;;10505380;28;19970;-66
2022/11/20 06:18:57;;;;;;;;;;;;;;;;;;10505178;28;19978;-66
2022/11/20 06:23:59;;;;;;;;;;;;;;;;;;10505019;28;19931;-66
2022/11/20 06:29:01;;;;;;;;;;;;;;;;;;10504735;28;19974;-66
2022/11/20 06:34:03;;;;;;;;;;;;;;;;;;10504201;28;19989;-66
2022/11/20 06:39:05;;;;;;;;;;;;;;;;;;10503924;28;19928;-66
2022/11/20 06:44:07;;;;;;;;;;;;;;;;;;10503254;28;20401;-66
2022/11/20 06:49:09;;;;;;;;;;;;;;;;;;10503401;28;19935;-66
2022/11/20 06:54:11;;;;;;;;;;;;;;;;;;10503886;28;19999;-66
2022/11/20 06:59:13;;;;;;;;;;;;;;;;;;10501887;28;20437;-66
2022/11/20 07:04:15;;;;;;;;;;;;;;;;;;10503480;28;19928;-66
2022/11/20 07:09:18;;;;;;;;;;;;;;;;;;10502630;28;20368;-66
2022/11/20 07:14:20;;;;;;;;;;;;;;;;;;10503168;28;19928;-66
2022/11/20 07:19:22;;;;;;;;;;;;;;;;;;10502348;28;20302;-66
2022/11/20 07:24:24;;;;;;;;;;;;;;;;;;10502373;28;19983;-66
2022/11/20 07:29:26;;;;;;;;;;;;;;;;;;10501907;28;19955;-66
2022/11/20 07:34:28;;;;;;;;;;;;;;;;;;10501574;28;19974;-66
2022/11/20 07:39:30;;;;;;;;;;;;;;;;;;10502156;28;19935;-66
2022/11/20 07:44:32;;;;;;;;;;;;;;;;;;10502424;28;19950;-66
2022/11/20 07:49:34;;;;;;;;;;;;;;;;;;10501030;28;20270;-66
2022/11/20 07:54:37;;;;;;;;;;;;;;;;;;10500319;28;20291;-66
2022/11/20 07:59:39;;;;;;;;;;;;;;;;;;10500678;28;20461;-66
2022/11/20 08:04:41;;;;;;;;;;;;;;;;;;10501219;28;19925;-66
2022/11/20 08:09:43;;;;;;;;;;;;;;;;;;10500380;28;20371;-66
2022/11/20 08:14:45;;;;;;;;;;;;;;;;;;10500068;28;19925;-66
2022/11/20 08:19:47;;;;;;;;;;;;;;;;;;10500549;28;19928;-66
2022/11/20 08:24:50;;;;;;;;;;;;;;;;;;10500761;28;19928;-66
2022/11/20 08:29:52;;;;;;;;;;;;;;;;;;10500093;28;19970;-66
2022/11/20 08:34:54;;;;;;;;;;;;;;;;;;10499699;28;19966;-65
2022/11/20 08:39:56;;;;;;;;;;;;;;;;;;10499088;28;20368;-66
2022/11/20 08:44:58;;;;;;;;;;;;;;;;;;10499203;28;19970;-66
2022/11/20 08:50:00;;;;;;;;;;;;;;;;;;10498773;28;20338;-66
2022/11/20 08:55:02;;;;;;;;;;;;;;;;;;10498790;28;19928;-65
2022/11/20 09:00:05;;;;;;;;;;;;;;;;;;10499237;28;19932;-65
2022/11/20 09:05:08;;;;;;;;;;;;;;;;;;10498397;28;19925;-65
2022/11/20 09:10:10;;;;;;;;;;;;;;;;;;10499048;28;19929;-65
2022/11/20 09:15:24;;;;;;;;;;;;;;;;;;10498378;28;20394;-65
2022/11/20 09:20:26;;;;;;;;;;;;;;;;;;10498258;28;19929;-65
2022/11/20 09:25:28;;;;;;;;;;;;;;;;;;10498771;28;19974;-65
2022/11/20 09:30:31;;;;;;;;;;;;;;;;;;10497990;28;19931;-65
2022/11/20 09:35:33;;;;;;;;;;;;;;;;;;10498268;28;19928;-65
2022/11/20 09:40:35;;;;;;;;;;;;;;;;;;10498476;28;19928;-64
2022/11/20 09:45:38;;;;;;;;;;;;;;;;;;10498399;28;19932;-64
2022/11/20 09:50:40;;;;;;;;;;;;;;;;;;10497742;28;19928;-64
2022/11/20 09:55:42;;;;;;;;;;;;;;;;;;10498213;28;19931;-64
2022/11/20 10:00:44;;;;;;;;;;;;;;;;;;10497490;28;19928;-64
2022/11/20 10:05:46;;;;;;;;;;;;;;;;;;10497365;28;19962;-64
2022/11/20 10:10:48;;;;;;;;;;;;;;;;;;10497887;28;19928;-64
2022/11/20 10:15:54;;;;;;;;;;;;;;;;;;10500542;28;19970;-64
2022/11/20 10:20:56;;;;;;;;;;;;;;;;;;10505943;28;19929;-64
2022/11/20 10:25:58;;;;;;;;;;;;;;;;;;10504533;28;20261;-64
2022/11/20 10:31:00;;;;;;;;;;;;;;;;;;10504282;28;19928;-64
2022/11/20 10:36:03;;;;;;;;;;;;;;;;;;10504545;28;19928;-64
2022/11/20 10:46:25;;;;;;;;;;;;;;;;;;10503806;28;20306;-64
2022/11/20 10:51:27;;;;;;;;;;;;;;;;;;10503531;28;19924;-64
2022/11/20 10:56:29;;;;;;;;;;;;;;;;;;10503950;28;19947;-63
2022/11/20 11:01:31;;;;;;;;;;;;;;;;;;10503881;28;19924;-64
2022/11/20 11:06:33;;;;;;;;;;;;;;;;;;10503733;28;19932;-64
2022/11/20 11:11:35;;;;;;;;;;;;;;;;;;10503398;28;19929;-64
2022/11/20 11:16:37;;;;;;;;;;;;;;;;;;10503158;28;19990;-64
2022/11/20 11:21:43;;;;;;;;;;;;;;;;;;10503228;28;19970;-64
2022/11/20 11:26:45;;;;;;;;;;;;;;;;;;10502221;28;19990;-64
2022/11/20 11:31:47;;;;;;;;;;;;;;;;;;10502606;28;19978;-64
2022/11/20 11:36:49;;;;;;;;;;;;;;;;;;10502294;28;19970;-64
2022/11/20 11:41:51;;;;;;;;;;;;;;;;;;10502288;28;19924;-64
2022/11/20 11:46:53;;;;;;;;;;;;;;;;;;10501953;28;19925;-64
2022/11/20 11:51:55;;;;;;;;;;;;;;;;;;10501822;28;19925;-64
2022/11/20 11:56:57;;;;;;;;;;;;;;;;;;10502104;28;19925;-64
2022/11/20 12:01:59;;;;;;;;;;;;;;;;;;10501302;28;20287;-64
2022/11/20 12:07:01;;;;;;;;;;;;;;;;;;10501129;28;19979;-64
2022/11/20 12:12:19;;;;;;;;;;;;;;;;;;10501080;28;19924;-64
2022/11/20 12:17:21;;;;;;;;;;;;;;;;;;10500129;28;19924;-64
2022/11/20 12:22:23;;;;;;;;;;;;;;;;;;10499941;28;20382;-64
2022/11/20 12:27:25;;;;;;;;;;;;;;;;;;10500186;28;20314;-64
2022/11/20 12:32:27;;;;;;;;;;;;;;;;;;10500049;28;19970;-64
2022/11/20 12:37:29;;;;;;;;;;;;;;;;;;10499433;28;19924;-64
2022/11/20 12:47:52;;;;;;;;;;;;;;;;;;10499633;28;19932;-64
2022/11/20 12:52:55;;;;;;;;;;;;;;;;;;10499676;28;19932;-64
2022/11/20 12:57:57;;;;;;;;;;;;;;;;;;10499544;28;19925;-64
2022/11/20 13:02:59;;;;;;;;;;;;;;;;;;10499383;28;19924;-64
2022/11/20 13:08:01;;;;;;;;;;;;;;;;;;10498565;28;20295;-64
2022/11/20 13:13:03;;;;;;;;;;;;;;;;;;10498490;28;19928;-64
2022/11/20 13:18:06;;;;;;;;;;;;;;;;;;10499010;28;19924;-64
2022/11/20 13:23:08;;;;;;;;;;;;;;;;;;10498305;28;20264;-64
2022/11/20 13:28:10;;;;;;;;;;;;;;;;;;10498762;28;19924;-64
2022/11/20 13:33:12;;;;;;;;;;;;;;;;;;10498051;28;20376;-63
2022/11/20 13:38:14;;;;;;;;;;;;;;;;;;10498586;28;19932;-63
2022/11/20 13:43:16;;;;;;;;;;;;;;;;;;10498570;28;19924;-63
2022/11/20 13:48:18;;;;;;;;;;;;;;;;;;10497713;28;20368;-63
2022/11/20 13:53:20;;;;;;;;;;;;;;;;;;10505966;28;19928;-63
2022/11/20 13:58:22;;;;;;;;;;;;;;;;;;10506402;28;19932;-63
2022/11/20 14:03:24;;;;;;;;;;;;;;;;;;10506036;28;19928;-63
2022/11/20 14:08:46;;;;;;;;;;;;;;;;;;10505115;28;20365;-64
2022/11/20 14:13:48;;;;;;;;;;;;;;;;;;10505792;28;19924;-63
2022/11/20 14:18:50;;;;;;;;;;;;;;;;;;10504844;28;20387;-63
2022/11/20 14:23:52;;;;;;;;;;;;;;;;;;10505101;28;19928;-64
2022/11/20 14:28:54;;;;;;;;;;;;;;;;;;10504365;28;19929;-63
2022/11/20 14:33:56;;;;;;;;;;;;;;;;;;10504327;28;19982;-63
2022/11/20 14:38:58;;;;;;;;;;;;;;;;;;10504727;28;19986;-63
2022/11/20 14:44:01;;;;;;;;;;;;;;;;;;10503932;28;20345;-63
2022/11/20 14:49:04;;;;;;;;;;;;;;;;;;10504387;28;19924;-63
2022/11/20 14:54:06;;;;;;;;;;;;;;;;;;10502562;28;19932;-63
2022/11/20 14:59:08;;;;;;;;;;;;;;;;;;10502277;28;19970;-63
2022/11/20 15:04:10;;;;;;;;;;;;;;;;;;10501985;28;20322;-63
2022/11/20 15:09:13;;;;;;;;;;;;;;;;;;10503630;28;19924;-64
2022/11/20 15:14:15;;;;;;;;;;;;;;;;;;10502364;28;19970;-63
2022/11/20 15:19:17;;;;;;;;;;;;;;;;;;10491919;28;19925;-64
2022/11/20 15:24:19;;;;;;;;;;;;;;;;;;10499886;28;20480;-63
2022/11/20 15:29:22;;;;;;;;;;;;;;;;;;10499769;28;19925;-63
2022/11/20 15:34:24;;;;;;;;;;;;;;;;;;10500194;28;20233;-63
2022/11/20 15:39:26;;;;;;;;;;;;;;;;;;10498087;28;20007;-63
2022/11/20 15:44:29;;;;;;;;;;;;;;;;;;10493659;28;19924;-63
2022/11/20 15:49:31;;;;;;;;;;;;;;;;;;10546597;23;19924;-67
2022/11/20 15:54:33;;;;;;;;;;;;;;;;;;10585170;28;20381;-67
2022/11/20 15:59:39;;;;;;;;;;;;;;;;;;10585839;28;19928;-67
2022/11/20 16:04:41;;;;;;;;;;;;;;;;;;10585192;28;19924;-67
2022/11/20 16:09:43;;;;;;;;;;;;;;;;;;10584967;28;19923;-67
2022/11/20 16:20:11;;;;;;;;;;;;;;;;;;10562507;28;20481;-66
2022/11/20 16:25:13;;;;;;;;;;;;;;;;;;10540550;28;20278;-66
2022/11/20 16:30:16;;;;;;;;;;;;;;;;;;10542431;28;20287;-67
2022/11/20 16:35:18;;;;;;;;;;;;;;;;;;10542083;28;19931;-67
2022/11/20 16:40:20;;;;;;;;;;;;;;;;;;10541702;28;19931;-67
2022/11/20 16:45:22;;;;;;;;;;;;;;;;;;10541793;28;19928;-67
2022/11/20 16:50:27;;;;;;;;;;;;;;;;;;10540564;28;19924;-67
2022/11/20 16:55:30;;;;;;;;;;;;;;;;;;10540842;28;20385;-67
2022/11/20 17:00:34;;;;;;;;;;;;;;;;;;10538213;28;19932;-67
2022/11/20 17:05:36;;;;;;;;;;;;;;;;;;10540801;28;19970;-67
2022/11/20 17:10:38;;;;;;;;;;;;;;;;;;10541534;28;19970;-67
2022/11/20 17:15:40;;;;;;;;;;;;;;;;;;10540623;28;19924;-67
2022/11/20 17:20:42;;;;;;;;;;;;;;;;;;10540142;28;20428;-67
2022/11/20 17:25:44;;;;;;;;;;;;;;;;;;10540118;28;19939;-66
2022/11/20 17:30:46;;;;;;;;;;;;;;;;;;10540441;28;19973;-67
2022/11/20 17:35:48;;;;;;;;;;;;;;;;;;10540418;28;19970;-67
2022/11/20 17:40:50;;;;;;;;;;;;;;;;;;10537980;28;19974;-67
2022/11/20 17:45:52;;;;;;;;;;;;;;;;;;10538503;28;19928;-67
2022/11/20 17:50:54;;;;;;;;;;;;;;;;;;10539055;28;19931;-67
2022/11/20 18:01:17;;;;;;;;;;;;;;;;;;10539991;28;19924;-67
2022/11/20 18:06:19;;;;;;;;;;;;;;;;;;10539617;28;19925;-67
2022/11/20 18:11:22;;;;;;;;;;;;;;;;;;10546142;28;19966;-66
2022/11/20 18:16:24;;;;;;;;;;;;;;;;;;10581471;28;20324;-66
2022/11/20 18:21:26;;;;;;;;;;;;;;;;;;10572612;28;20287;-66
2022/11/20 18:26:28;;;;;;;;;;;;;;;;;;10536277;28;19924;-66
2022/11/20 18:31:30;;;;;;;;;;;;;;;;;;10538779;28;20295;-66
2022/11/20 18:36:32;;;;;;;;;;;;;;;;;;10542072;28;19978;-66
2022/11/20 18:46:55;;;;;;;;;;;;;;;;;;10546140;28;19970;-66
2022/11/20 18:51:57;;;;;;;;;;;;;;;;;;10543527;28;19973;-66
2022/11/20 18:56:59;;;;;;;;;;;;;;;;;;10543636;28;19928;-67
2022/11/20 19:02:01;;;;;;;;;;;;;;;;;;10541813;28;19931;-68
2022/11/20 19:07:04;;;;;;;;;;;;;;;;;;10542636;28;19931;-67
2022/11/20 19:12:06;;;;;;;;;;;;;;;;;;10543149;28;19924;-67
2022/11/20 19:17:11;;;;;;;;;;;;;;;;;;10542430;28;20297;-67
2022/11/20 19:22:13;;;;;;;;;;;;;;;;;;10542805;28;19924;-67
2022/11/20 19:27:15;;;;;;;;;;;;;;;;;;10542784;28;19924;-67
2022/11/20 19:32:17;;;;;;;;;;;;;;;;;;10542042;28;20255;-67
2022/11/20 19:37:19;;;;;;;;;;;;;;;;;;10541424;28;20290;-67
2022/11/20 19:42:21;;;;;;;;;;;;;;;;;;10541434;28;19981;-67
2022/11/20 19:47:24;;;;;;;;;;;;;;;;;;10554748;28;20294;-66
2022/11/20 19:52:49;;;;;;;;;;;;;;;;;;10493168;28;19913;-65
2022/11/20 19:57:56;;;;;;;;;;;;;;;;;;10492890;28;19928;-65
2022/11/20 20:02:58;;;;;;;;;;;;;;;;;;10493303;28;19979;-64
2022/11/20 20:08:00;;;;;;;;;;;;;;;;;;10492031;28;19994;-65
2022/11/20 20:13:02;;;;;;;;;;;;;;;;;;10492277;28;20364;-64
2022/11/20 20:18:04;;;;;;;;;;;;;;;;;;10492694;28;19924;-65
2022/11/20 20:23:06;;;;;;;;;;;;;;;;;;10492368;28;19928;-64
2022/11/20 20:28:09;;;;;;;;;;;;;;;;;;10486831;28;19925;-65
2022/11/20 20:33:11;;;;;;;;;;;;;;;;;;10491963;28;19931;-65
2022/11/20 20:38:13;;;;;;;;;;;;;;;;;;10491214;28;20291;-65
2022/11/20 20:43:15;;;;;;;;;;;;;;;;;;10490913;28;20315;-65
2022/11/20 20:48:17;;;;;;;;;;;;;;;;;;10494786;28;19978;-64
2022/11/20 20:53:19;;;;;;;;;;;;;;;;;;10532625;28;19924;-64
2022/11/20 20:58:21;;;;;;;;;;;;;;;;;;10533093;28;19931;-65
2022/11/20 21:03:23;;;;;;;;;;;;;;;;;;10509282;28;19924;-65
2022/11/20 21:08:28;;;;;;;;;;;;;;;;;;10503896;28;19929;-65
2022/11/20 21:13:30;;;;;;;;;;;;;;;;;;10504490;28;19970;-64
2022/11/20 21:18:32;;;;;;;;;;;;;;;;;;10504227;28;19924;-65
2022/11/20 21:23:34;;;;;;;;;;;;;;;;;;10503585;28;19928;-65
2022/11/20 21:28:36;;;;;;;;;;;;;;;;;;10503370;28;20341;-64
2022/11/20 21:33:38;;;;;;;;;;;;;;;;;;10503685;28;19924;-64
2022/11/20 21:38:40;;;;;;;;;;;;;;;;;;10503545;28;19924;-64
2022/11/20 21:43:43;;;;;;;;;;;;;;;;;;10502647;28;19954;-64
2022/11/20 21:48:45;;;;;;;;;;;;;;;;;;10502753;28;19929;-64
2022/11/20 21:53:47;;;;;;;;;;;;;;;;;;10502230;28;19951;-65
2022/11/20 21:58:49;;;;;;;;;;;;;;;;;;10502652;28;19924;-65
2022/11/20 22:03:51;;;;;;;;;;;;;;;;;;10501329;28;19924;-65
2022/11/20 22:08:53;;;;;;;;;;;;;;;;;;10501440;28;19924;-65
2022/11/20 22:19:16;;;;;;;;;;;;;;;;;;10501135;28;20299;-65
2022/11/20 22:24:18;;;;;;;;;;;;;;;;;;10500925;28;19924;-65
2022/11/20 22:29:21;;;;;;;;;;;;;;;;;;10501253;28;19925;-65
2022/11/20 22:34:23;;;;;;;;;;;;;;;;;;10500526;28;20264;-65
2022/11/20 22:39:25;;;;;;;;;;;;;;;;;;10500312;28;19924;-65
2022/11/20 22:44:27;;;;;;;;;;;;;;;;;;10500154;28;20345;-65
2022/11/20 22:49:29;;;;;;;;;;;;;;;;;;10500156;28;19924;-65
2022/11/20 22:54:31;;;;;;;;;;;;;;;;;;10500362;28;19985;-65
2022/11/20 22:59:33;;;;;;;;;;;;;;;;;;10500166;28;19924;-65
2022/11/20 23:04:36;;;;;;;;;;;;;;;;;;10499405;28;19929;-65
2022/11/20 23:09:38;;;;;;;;;;;;;;;;;;10499767;28;19931;-65
2022/11/20 23:14:40;;;;;;;;;;;;;;;;;;10499750;28;19924;-65
2022/11/20 23:19:42;;;;;;;;;;;;;;;;;;10499103;28;20364;-65
2022/11/20 23:24:44;;;;;;;;;;;;;;;;;;10499291;28;19954;-64
2022/11/20 23:29:46;;;;;;;;;;;;;;;;;;10498637;28;19928;-66
2022/11/20 23:34:48;;;;;;;;;;;;;;;;;;10481543;28;19947;-65
2022/11/20 23:39:50;;;;;;;;;;;;;;;;;;10499149;28;19951;-64
2022/11/20 23:44:52;;;;;;;;;;;;;;;;;;10499001;28;19924;-65
2022/11/20 23:49:54;;;;;;;;;;;;;;;;;;10498559;28;19970;-64
2022/11/20 23:54:56;;;;;;;;;;;;;;;;;;10498789;28;19928;-65
2022/11/20 23:59:58;;;;;;;;;;;;;;;;;;10498712;28;19924;-65
